Time;durP1;ratioP1;P1;durP2;ratioP2;P2;SDS_P1;SDS_P2;PMS_P1;PMS_P2;Temp;Humidity;BMP_temperature;BMP_pressure;BME280_temperature;BME280_humidity;BME280_pressure;Samples;Min_cycle;Max_cycle;Signal;HPM_P1;HPM_P2
2022/01/06 00:04:01;;;;;;;1999.90;999.90;;;;;;;5.71;69.96;99942.81;15523831;28;20382;-65
2022/01/06 00:11:52;;;;;;;1999.90;999.90;;;;;;;5.90;70.21;99948.09;15557528;28;20034;-64
2022/01/06 00:27:18;;;;;;;1999.90;999.90;;;;;;;5.88;70.21;99970.56;15540043;28;20392;-64
2022/01/06 00:34:51;;;;;;;1999.90;999.90;;;;;;;5.92;70.50;99976.31;15531593;28;20090;-65
2022/01/06 00:42:27;;;;;;;1999.90;999.90;;;;;;;5.86;70.46;99981.16;15530235;28;20087;-64
2022/01/06 00:50:00;;;;;;;1999.90;999.90;;;;;;;5.85;70.82;100011.94;15549973;28;20133;-65
2022/01/06 00:57:34;;;;;;;1999.90;999.90;;;;;;;5.49;73.01;100041.34;15509004;28;20140;-64
2022/01/06 01:05:08;;;;;;;1999.90;999.90;;;;;;;5.22;74.21;100058.91;15537494;28;20382;-66
2022/01/06 01:12:46;;;;;;;;;;;;;;;5.31;74.32;100071.97;15563471;28;20057;-65
2022/01/06 01:20:20;;;;;;;1999.90;999.90;;;;;;;5.04;73.79;100086.72;15559435;28;19921;-65
2022/01/06 01:27:55;;;;;;;1999.90;999.90;;;;;;;4.96;72.23;100104.03;15599822;28;20048;-65
2022/01/06 01:35:31;;;;;;;1999.90;999.90;;;;;;;4.59;71.20;100109.53;15538841;28;20049;-65
2022/01/06 01:43:07;;;;;;;1999.90;999.90;;;;;;;4.49;68.42;100147.59;15564317;28;20301;-65
2022/01/06 01:50:39;;;;;;;1999.90;999.90;;;;;;;4.15;68.07;100154.28;15554810;28;20526;-65
2022/01/06 01:58:14;;;;;;;1999.90;999.90;;;;;;;4.00;67.62;100157.34;15496317;28;20060;-65
2022/01/06 02:05:47;;;;;;;1999.90;999.90;;;;;;;4.36;66.16;100171.31;15574235;28;20508;-64
2022/01/06 02:13:23;;;;;;;1999.90;999.90;;;;;;;4.39;66.04;100180.94;15546759;28;20092;-65
2022/01/06 02:20:58;;;;;;;1999.90;999.90;;;;;;;4.32;67.97;100195.16;15529162;28;20042;-64
2022/01/06 02:28:30;;;;;;;1999.90;999.90;;;;;;;4.41;69.57;100198.84;15545998;28;20078;-64
2022/01/06 02:36:05;;;;;;;1999.90;999.90;;;;;;;4.26;69.87;100230.31;15517472;28;20042;-65
2022/01/06 02:43:38;;;;;;;1999.90;999.90;;;;;;;4.27;69.39;100239.41;15523402;28;20156;-65
2022/01/06 02:51:11;;;;;;;1999.90;999.90;;;;;;;4.41;68.64;100272.63;15551740;28;20046;-65
2022/01/06 02:58:44;;;;;;;1999.90;999.90;;;;;;;4.19;67.33;100276.84;15576400;28;20090;-65
2022/01/06 03:06:18;;;;;;;1999.90;999.90;;;;;;;4.14;67.98;100293.47;15565636;28;20085;-65
2022/01/06 03:13:51;;;;;;;1999.90;999.90;;;;;;;3.82;67.43;100316.31;15516140;28;20038;-64
2022/01/06 03:21:24;;;;;;;1999.90;999.90;;;;;;;3.67;66.64;100338.63;15565140;28;20044;-66
2022/01/06 03:28:57;;;;;;;1999.90;999.90;;;;;;;3.56;64.81;100348.97;15588195;28;20100;-64
2022/01/06 03:36:31;;;;;;;1999.90;999.90;;;;;;;3.42;63.14;100361.81;15504313;28;20080;-64
2022/01/06 03:44:05;;;;;;;1999.90;999.90;;;;;;;3.02;62.23;100385.13;15540874;28;20062;-65
2022/01/06 03:51:39;;;;;;;1999.90;999.90;;;;;;;3.24;62.23;100409.50;15534089;28;20046;-64
2022/01/06 03:59:12;;;;;;;1999.90;999.90;;;;;;;2.93;62.03;100419.97;15583129;28;20049;-65
2022/01/06 04:06:46;;;;;;;1999.90;999.90;;;;;;;3.13;60.97;100445.44;15514117;28;20058;-64
2022/01/06 04:14:18;;;;;;;1999.90;999.90;;;;;;;3.03;60.70;100464.00;15552175;28;20080;-66
2022/01/06 04:21:53;;;;;;;1999.90;999.90;;;;;;;2.75;60.97;100476.63;15530033;28;20057;-64
2022/01/06 04:29:25;;;;;;;1999.90;999.90;;;;;;;2.54;60.73;100484.19;15533460;28;20050;-64
2022/01/06 04:37:00;;;;;;;1999.90;999.90;;;;;;;2.65;60.22;100513.31;15502067;28;20439;-65
2022/01/06 04:44:33;;;;;;;1999.90;999.90;;;;;;;2.56;60.12;100518.59;15554281;28;20471;-65
2022/01/06 04:52:07;;;;;;;1999.90;999.90;;;;;;;2.55;60.47;100530.75;15563622;28;20046;-65
2022/01/06 04:59:40;;;;;;;1999.90;999.90;;;;;;;2.52;61.13;100542.34;15587971;28;20049;-64
2022/01/06 05:07:14;;;;;;;1999.90;999.90;;;;;;;2.62;61.13;100560.72;15600546;28;20092;-65
2022/01/06 05:14:47;;;;;;;1999.90;999.90;;;;;;;2.60;60.26;100573.94;15560609;28;20438;-65
2022/01/06 05:22:21;;;;;;;1999.90;999.90;;;;;;;2.73;60.12;100578.84;15562596;28;20610;-65
2022/01/06 05:29:53;;;;;;;1999.90;999.90;;;;;;;2.63;60.58;100592.69;15518168;28;20049;-64
2022/01/06 05:37:27;;;;;;;1999.90;999.90;;;;;;;2.55;61.63;100620.81;15533330;28;20484;-65
2022/01/06 05:45:00;;;;;;;1999.90;999.90;;;;;;;2.46;62.24;100636.28;15535112;28;20073;-63
2022/01/06 05:52:34;;;;;;;1999.90;999.90;;;;;;;2.31;62.76;100671.03;15514739;28;20038;-63
2022/01/06 06:00:10;;;;;;;1999.90;999.90;;;;;;;2.17;63.64;100678.19;15566721;28;20140;-63
2022/01/06 06:07:48;;;;;;;1999.90;999.90;;;;;;;2.26;64.20;100698.56;15561208;28;20121;-63
2022/01/06 06:15:21;;;;;;;1999.90;999.90;;;;;;;1.95;65.70;100707.94;15529727;28;20046;-63
2022/01/06 06:22:55;;;;;;;1999.90;999.90;;;;;;;2.15;65.80;100705.19;15514877;28;20463;-65
2022/01/06 06:30:28;;;;;;;1999.90;999.90;;;;;;;2.01;67.18;100737.97;15536864;28;20093;-65
2022/01/06 06:38:02;;;;;;;1999.90;999.90;;;;;;;1.89;68.20;100742.91;15549858;28;20414;-66
2022/01/06 06:45:34;;;;;;;1999.90;999.90;;;;;;;1.89;69.31;100761.34;15529865;28;20458;-67
2022/01/06 06:53:08;;;;;;;1999.90;999.90;;;;;;;2.18;68.51;100776.19;15562777;28;20042;-66
2022/01/06 07:00:41;;;;;;;1999.90;999.90;;;;;;;1.78;69.91;100789.97;15594050;28;20140;-65
2022/01/06 07:08:16;;;;;;;1999.90;999.90;;;;;;;1.98;69.63;100804.56;15579839;28;20049;-65
2022/01/06 07:15:48;;;;;;;1999.90;999.90;;;;;;;1.79;70.63;100819.97;15609964;28;20137;-65
2022/01/06 07:23:22;;;;;;;1999.90;999.90;;;;;;;2.16;69.59;100829.91;15628174;28;20045;-65
2022/01/06 07:30:55;;;;;;;1999.90;999.90;;;;;;;1.60;71.28;100849.88;15600900;28;20041;-65
2022/01/06 07:38:32;;;;;;;1999.90;999.90;;;;;;;1.81;71.56;100870.03;15562013;28;20474;-66
2022/01/06 07:46:06;;;;;;;1999.90;999.90;;;;;;;1.98;70.39;100875.28;15562343;28;20042;-64
2022/01/06 07:53:40;;;;;;;1999.90;999.90;;;;;;;2.08;70.58;100885.50;15593129;28;20502;-64
2022/01/06 08:01:13;;;;;;;1999.90;999.90;;;;;;;1.98;71.02;100895.41;15561524;28;20050;-65
2022/01/06 08:08:50;;;;;;;1999.90;999.90;;;;;;;2.14;70.58;100909.19;15586835;28;20046;-64
2022/01/06 08:16:22;;;;;;;1999.90;999.90;;;;;;;2.33;70.37;100921.34;15513990;28;20042;-65
2022/01/06 08:23:56;;;;;;;1999.90;999.90;;;;;;;2.56;69.18;100929.06;15564280;28;20069;-65
2022/01/06 08:31:29;;;;;;;1999.90;999.90;;;;;;;2.36;70.19;100942.81;15611284;28;20044;-66
2022/01/06 08:39:03;;;;;;;1999.90;999.90;;;;;;;2.68;69.30;100948.09;15579379;28;20598;-65
2022/01/06 08:46:36;;;;;;;1999.90;999.90;;;;;;;2.63;69.29;100966.56;15590502;28;20045;-64
2022/01/06 08:54:12;;;;;;;1999.90;999.90;;;;;;;3.15;67.50;100985.59;15568246;28;20487;-67
2022/01/06 09:01:48;;;;;;;1999.90;999.90;;;;;;;2.79;68.26;100995.75;15600828;28;20495;-63
2022/01/06 09:09:26;;;;;;;1999.90;999.90;;;;;;;3.43;66.97;100998.75;15560289;28;20526;-65
2022/01/06 09:17:00;;;;;;;1999.90;999.90;;;;;;;3.95;64.18;101016.84;15557678;28;20034;-64
2022/01/06 09:24:35;;;;;;;1999.90;999.90;;;;;;;5.18;60.52;101028.84;15550259;28;20132;-63
2022/01/06 09:32:08;;;;;;;1999.90;999.90;;;;;;;6.88;55.66;101037.72;15556054;28;20073;-65
2022/01/06 09:39:43;;;;;;;1999.90;999.90;;;;;;;7.53;53.71;101058.00;15556422;28;20042;-66
2022/01/06 09:47:17;;;;;;;1999.90;999.90;;;;;;;7.61;52.90;101070.38;15557324;28;20095;-63
2022/01/06 09:54:53;;;;;;;1999.90;999.90;;;;;;;8.95;50.17;101072.94;15581506;28;20061;-63
2022/01/06 10:02:33;;;;;;;1999.90;999.90;;;;;;;8.59;50.48;101092.41;15581059;28;20042;-64
2022/01/06 10:10:10;;;;;;;1999.90;999.90;;;;;;;9.00;49.66;101105.44;15555299;28;20126;-63
2022/01/06 10:17:43;;;;;;;1999.90;999.90;;;;;;;9.89;47.64;101110.19;15552112;28;20912;-64
2022/01/06 10:25:18;;;;;;;1999.90;999.90;;;;;;;9.63;48.05;101110.03;15536821;28;20104;-64
2022/01/06 10:32:51;;;;;;;1999.90;999.90;;;;;;;8.77;48.86;101126.81;15573573;28;20053;-64
2022/01/06 10:40:26;;;;;;;1999.90;999.90;;;;;;;8.60;49.47;101133.00;15615995;28;20402;-65
2022/01/06 10:48:00;;;;;;;1999.90;999.90;;;;;;;9.67;46.61;101145.31;15616829;28;20055;-64
2022/01/06 10:55:39;;;;;;;1999.90;999.90;;;;;;;9.89;47.05;101152.81;15616405;28;20100;-65
2022/01/06 11:03:13;;;;;;;1999.90;999.90;;;;;;;10.09;45.13;101162.63;15616778;28;20045;-65
2022/01/06 11:10:51;;;;;;;1999.90;999.90;;;;;;;10.21;44.70;101174.03;15599027;28;20473;-65
2022/01/06 11:18:27;;;;;;;1999.90;999.90;;;;;;;9.75;44.50;101175.19;15564938;28;20525;-65
2022/01/06 11:26:07;;;;;;;1999.90;999.90;;;;;;;11.79;41.02;101197.31;15612637;28;20041;-65
2022/01/06 11:33:41;;;;;;;1999.90;999.90;;;;;;;11.88;39.87;101191.72;15547129;28;20042;-64
2022/01/06 11:41:15;;;;;;;1999.90;999.90;;;;;;;13.45;36.98;101210.44;15560697;28;20038;-65
2022/01/06 11:48:49;;;;;;;1999.90;999.90;;;;;;;13.86;35.45;101210.44;15582511;28;20133;-63
2022/01/06 11:56:24;;;;;;;1999.90;999.90;;;;;;;13.34;35.72;101209.16;15587250;28;20042;-64
2022/01/06 12:03:57;;;;;;;1999.90;999.90;;;;;;;12.89;37.37;101218.13;15561945;28;20423;-64
2022/01/06 12:11:34;;;;;;;1999.90;999.90;;;;;;;14.83;33.99;101236.38;15561658;28;20041;-65
2022/01/06 12:19:14;;;;;;;1999.90;999.90;;;;;;;14.51;32.78;101238.88;15547089;28;20057;-64
2022/01/06 12:26:48;;;;;;;1999.90;999.90;;;;;;;16.54;30.04;101227.56;15556483;28;20491;-64
2022/01/06 12:34:21;;;;;;;1999.90;999.90;;;;;;;14.16;32.00;101238.38;15556818;28;20048;-64
2022/01/06 12:41:58;;;;;;;1999.90;999.90;;;;;;;15.35;30.93;101253.38;15557078;28;20398;-64
2022/01/06 12:49:31;;;;;;;1999.90;999.90;;;;;;;14.57;32.07;101256.31;15556702;28;20049;-65
2022/01/06 12:57:09;;;;;;;1999.90;999.90;;;;;;;15.15;30.62;101257.94;15559433;28;20140;-65
2022/01/06 13:04:46;;;;;;;1999.90;999.90;;;;;;;15.47;29.89;101264.59;15555886;28;20060;-65
2022/01/06 13:12:25;;;;;;;1999.90;999.90;;;;;;;12.55;33.82;101261.91;15558139;28;20038;-65
2022/01/06 13:20:00;;;;;;;1999.90;999.90;;;;;;;12.28;34.12;101257.50;15555389;28;20100;-65
2022/01/06 13:27:40;;;;;;;1999.90;999.90;;;;;;;12.66;34.27;101279.19;15557508;28;20073;-65
2022/01/06 13:35:13;;;;;;;1999.90;999.90;;;;;;;10.72;37.99;101298.25;15572870;28;20058;-65
2022/01/06 13:42:52;;;;;;;1999.90;999.90;;;;;;;9.89;39.67;101286.63;15553048;28;20050;-65
2022/01/06 13:58:23;;;;;;;1999.90;999.90;;;;;;;7.82;44.75;101284.78;15553727;28;20049;-65
2022/01/06 14:05:57;;;;;;;1999.90;999.90;;;;;;;7.49;46.79;101294.94;15559220;28;20132;-65
2022/01/06 14:13:32;;;;;;;1999.90;999.90;;;;;;;7.36;47.40;101295.69;15535389;28;20060;-64
2022/01/06 14:21:06;;;;;;;1999.90;999.90;;;;;;;6.57;49.67;101292.44;15553456;28;20050;-64
2022/01/06 14:28:40;;;;;;;1999.90;999.90;;;;;;;6.66;50.67;101299.78;15602300;28;20045;-64
2022/01/06 14:36:13;;;;;;;1999.90;999.90;;;;;;;6.58;51.46;101306.00;15553244;28;20076;-64
2022/01/06 14:43:49;;;;;;;1999.90;999.90;;;;;;;6.66;51.86;101310.88;15539622;28;20431;-64
2022/01/06 14:51:23;;;;;;;1999.90;999.90;;;;;;;6.39;52.91;101309.78;15553764;28;20066;-64
2022/01/06 14:58:57;;;;;;;1999.90;999.90;;;;;;;6.19;53.47;101331.00;15556722;28;20077;-65
2022/01/06 15:06:29;;;;;;;1999.90;999.90;;;;;;;5.85;53.90;101333.69;15591566;28;20042;-63
2022/01/06 15:14:03;;;;;;;1999.90;999.90;;;;;;;5.64;55.30;101344.06;15571529;28;20530;-65
2022/01/06 15:21:37;;;;;;;1999.90;999.90;;;;;;;5.31;55.96;101350.28;15570745;28;20042;-65
2022/01/06 15:29:12;;;;;;;1999.90;999.90;;;;;;;4.99;56.48;101358.94;15567345;28;20116;-65
2022/01/06 15:36:45;;;;;;;1999.90;999.90;;;;;;;4.74;57.34;101366.19;15564087;28;20057;-64
2022/01/06 15:44:19;;;;;;;1999.90;999.90;;;;;;;4.52;58.59;101379.47;15563666;28;20042;-63
2022/01/06 15:51:52;;;;;;;1999.90;999.90;;;;;;;4.36;58.21;101392.44;15569566;28;20041;-63
2022/01/06 15:59:32;;;;;;;1999.90;999.90;;;;;;;4.05;59.74;101388.81;15594672;28;20096;-63
2022/01/06 16:07:05;;;;;;;1999.90;999.90;;;;;;;4.03;60.04;101377.22;15579471;28;20119;-62
2022/01/06 16:14:39;;;;;;;1999.90;999.90;;;;;;;3.89;60.01;101382.44;15577389;28;20145;-61
2022/01/06 16:22:12;;;;;;;1999.90;999.90;;;;;;;3.63;61.01;101389.81;15567678;28;20129;-63
2022/01/06 16:29:47;;;;;;;1999.90;999.90;;;;;;;3.35;62.03;101398.53;15547095;28;20392;-62
2022/01/06 16:37:21;;;;;;;1999.90;999.90;;;;;;;3.11;63.16;101398.94;15564230;28;20104;-66
2022/01/06 16:44:54;;;;;;;;;;;;;;;3.38;62.28;101409.00;15548667;28;20507;-61
2022/01/06 16:52:27;;;;;;;1999.90;999.90;;;;;;;3.15;62.79;101416.63;15569675;28;20020;-65
2022/01/06 17:00:01;;;;;;;1999.90;999.90;;;;;;;3.19;62.78;101408.63;15606393;28;20112;-64
2022/01/06 17:07:35;;;;;;;1999.90;999.90;;;;;;;3.22;62.84;101421.06;15602502;28;20041;-64
2022/01/06 17:15:11;;;;;;;1999.90;999.90;;;;;;;3.46;62.62;101416.78;15588256;28;20041;-66
2022/01/06 17:22:44;;;;;;;1999.90;999.90;;;;;;;3.39;62.43;101421.72;15573955;28;20060;-64
2022/01/06 17:30:18;;;;;;;1999.90;999.90;;;;;;;3.37;62.09;101424.75;15594200;28;20038;-65
2022/01/06 17:37:52;;;;;;;1999.90;999.90;;;;;;;3.32;62.52;101424.69;15577612;28;20041;-65
2022/01/06 17:45:26;;;;;;;1999.90;999.90;;;;;;;3.35;62.58;101431.63;15563040;28;20050;-66
2022/01/06 17:52:59;;;;;;;1999.90;999.90;;;;;;;3.30;62.69;101434.34;15561830;28;20038;-63
2022/01/06 18:00:33;;;;;;;1999.90;999.90;;;;;;;3.23;63.25;101426.31;15536111;28;20046;-64
2022/01/06 18:08:25;;;;;;;1999.90;999.90;;;;;;;3.03;63.64;101428.97;15562290;28;20038;-66
2022/01/06 18:16:01;;;;;;;1999.90;999.90;;;;;;;3.15;63.76;101438.69;15596565;28;20042;-59
2022/01/06 18:23:33;;;;;;;1999.90;999.90;;;;;;;3.11;64.43;101431.19;15532430;28;20120;-60
2022/01/06 18:31:08;;;;;;;1999.90;999.90;;;;;;;2.95;64.87;101433.03;15520701;28;20045;-63
2022/01/06 18:38:41;;;;;;;1999.90;999.90;;;;;;;2.81;65.29;101434.56;15527854;28;20042;-64
2022/01/06 18:46:15;;;;;;;1999.90;999.90;;;;;;;2.95;65.41;101433.03;15551404;28;20042;-64
2022/01/06 18:53:48;;;;;;;1999.90;999.90;;;;;;;2.81;66.09;101426.28;15574707;28;20045;-62
2022/01/06 19:01:28;;;;;;;1999.90;999.90;;;;;;;2.75;66.44;101436.47;15573231;28;20045;-66
2022/01/06 19:09:02;;;;;;;1999.90;999.90;;;;;;;2.62;66.83;101422.31;15593468;28;20364;-54
2022/01/06 19:16:36;;;;;;;1999.90;999.90;;;;;;;2.54;67.40;101435.47;15568449;28;20053;-63
2022/01/06 19:24:08;;;;;;;1999.90;999.90;;;;;;;2.45;67.53;101436.19;15586223;28;20083;-64
2022/01/06 19:31:42;;;;;;;1999.90;999.90;;;;;;;2.41;67.91;101437.81;15582809;28;20127;-63
2022/01/06 19:39:17;;;;;;;1999.90;999.90;;;;;;;2.29;68.45;101443.47;15562723;28;20557;-64
2022/01/06 19:46:51;;;;;;;1999.90;999.90;;;;;;;2.30;68.60;101445.97;15537892;28;20133;-63
2022/01/06 19:54:23;;;;;;;1999.90;999.90;;;;;;;2.21;68.22;101436.53;15525458;28;20117;-65
2022/01/06 20:01:58;;;;;;;1999.90;999.90;;;;;;;2.17;68.35;101440.88;15528074;28;20056;-65
2022/01/06 20:09:30;;;;;;;1999.90;999.90;;;;;;;2.02;69.17;101438.78;15562983;28;20046;-64
2022/01/06 20:17:05;;;;;;;1999.90;999.90;;;;;;;1.90;70.10;101432.59;15563385;28;20052;-64
2022/01/06 20:24:38;;;;;;;1999.90;999.90;;;;;;;1.94;69.91;101435.66;15552321;28;20077;-66
2022/01/06 20:32:13;;;;;;;1999.90;999.90;;;;;;;1.91;70.67;101441.69;15526731;28;20062;-63
2022/01/06 20:39:45;;;;;;;1999.90;999.90;;;;;;;1.91;70.26;101447.19;15528529;28;20050;-63
2022/01/06 20:55:20;;;;;;;1999.90;999.90;;;;;;;1.65;71.25;101438.63;15566845;28;20184;-62
2022/01/06 21:02:55;;;;;;;1999.90;999.90;;;;;;;1.58;71.46;101437.19;15556525;28;20100;-62
2022/01/06 21:10:32;;;;;;;1999.90;999.90;;;;;;;1.54;71.66;101425.81;15552907;28;20115;-63
2022/01/06 21:18:07;;;;;;;1999.90;999.90;;;;;;;1.77;70.81;101421.16;15552805;28;20049;-62
2022/01/06 21:25:42;;;;;;;1999.90;999.90;;;;;;;1.76;71.44;101425.81;15551163;28;20045;-62
2022/01/06 21:33:16;;;;;;;1999.90;999.90;;;;;;;1.75;71.70;101424.16;15512398;28;20491;-64
2022/01/06 21:40:49;;;;;;;1999.90;999.90;;;;;;;1.63;71.98;101427.06;15553022;28;20703;-61
2022/01/06 21:48:23;;;;;;;1999.90;999.90;;;;;;;1.63;72.02;101423.47;15549691;28;20046;-66
2022/01/06 21:55:56;;;;;;;1999.90;999.90;;;;;;;1.71;71.91;101423.84;15537727;28;20154;-67
2022/01/06 22:03:30;;;;;;;1999.90;999.90;;;;;;;1.68;71.91;101431.81;15531433;28;20054;-64
2022/01/06 22:11:04;;;;;;;1999.90;999.90;;;;;;;1.57;71.65;101432.75;15528628;28;20522;-65
2022/01/06 22:18:38;;;;;;;1999.90;999.90;;;;;;;1.44;73.16;101421.03;15531621;28;20574;-65
2022/01/06 22:26:15;;;;;;;1999.90;999.90;;;;;;;1.48;73.02;101404.03;15544620;28;20110;-63
2022/01/06 22:33:49;;;;;;;1999.90;999.90;;;;;;;1.67;72.62;101406.22;15527150;28;20100;-65
2022/01/06 22:41:22;;;;;;;1999.90;999.90;;;;;;;1.69;72.56;101415.03;15512054;28;20058;-65
2022/01/06 22:48:56;;;;;;;1999.90;999.90;;;;;;;1.64;72.19;101403.13;15555325;28;20038;-65
2022/01/06 22:56:29;;;;;;;1999.90;999.90;;;;;;;1.62;72.22;101408.88;15524850;28;20049;-66
2022/01/06 23:04:03;;;;;;;1999.90;999.90;;;;;;;1.74;72.22;101404.06;15536765;28;20049;-64
2022/01/06 23:11:37;;;;;;;1999.90;999.90;;;;;;;1.67;72.04;101408.97;15545496;28;20317;-64
2022/01/06 23:19:13;;;;;;;1999.90;999.90;;;;;;;1.68;71.84;101409.78;15498550;28;20042;-64
2022/01/06 23:26:46;;;;;;;1999.90;999.90;;;;;;;1.54;71.96;101412.06;15539004;28;20477;-64
2022/01/06 23:34:20;;;;;;;1999.90;999.90;;;;;;;1.52;72.29;101396.91;15516649;28;20497;-65
2022/01/06 23:41:53;;;;;;;1999.90;999.90;;;;;;;1.64;71.63;101397.63;15542977;28;20046;-65
2022/01/06 23:49:28;;;;;;;1999.90;999.90;;;;;;;1.49;71.64;101397.44;15528286;28;20057;-64
2022/01/06 23:57:05;;;;;;;1999.90;999.90;;;;;;;1.56;71.12;101381.56;15529690;28;20199;-64
